Flugplatz Hannover

Bericht für EDDV

vom 17.10. um 10:20 UTC

Wind 10 kt aus 260°

Sichtweite 10 km oder mehr

aufgebrochene Bewölkung in 2400 ft

Temperatur 18.0°C

Taupunkt 12.0°C

Luftfeuchtigkeit 68%

Luftdruck 1021 hPa

keine wesentliche Wetteränderung innerhalb den nächsten 2 Stunden zu erwarten

EDDV 171020Z 26010KT 230V300 9999 BKN024 18/12 Q1021 NOSIG

Prognose für EDDV

vom 17.10. um 05:00 UTC

Zwischen 06:00 UTC und 17:00 UTC

Wind 7 kt aus 230°

Sichtweite 10 km oder mehr

keine signifikanten Wettererscheinungen

keine Wolken


Zwischen 17:00 und 19:00 UTC übergehend zu

variable Windrichtung mit 3 kt

Sichtweite 10 km oder mehr

keine signifikanten Wettererscheinungen

keine Wolken


Am 18.10. zwischen 00:00 und 03:00 UTC übergehend zu

variable Windrichtung mit 3 kt

Sichtweite 2500 m

flacher Bodennebel

keine Wolken


Am 18.10. zwischen 02:00 UTC und 06:00 UTC zeitweise mit einer Wahrscheinlichkeit von 30%

Sichtweite 800 m

Nebel

TAF EDDV 170500Z 1706/1806 23007KT CAVOK BECMG 1717/1719 VRB03KT BECMG 1800/1803 2500 MIFG PROB30 TEMPO 1802/1806 0800 FG
Impressum